Time;durP1;ratioP1;P1;durP2;ratioP2;P2;SDS_P1;SDS_P2;PMS_P1;PMS_P2;Temp;Humidity;BMP_temperature;BMP_pressure;BME280_temperature;BME280_humidity;BME280_pressure;Samples;Min_cycle;Max_cycle;Signal;HPM_P1;HPM_P2
2023/02/20 00:01:47;;;;;;;7.90;3.50;;;;;;;3.01;74.64;101167.10;107508;1254;110441;-61
2023/02/20 00:04:15;;;;;;;6.00;2.80;;;;;;;2.97;74.64;101161.29;107566;1254;109068;-61
2023/02/20 00:06:44;;;;;;;6.10;4.10;;;;;;;2.96;74.68;101158.50;107405;1254;107324;-60
2023/02/20 00:09:13;;;;;;;3.20;2.60;;;;;;;2.97;74.74;101160.77;107543;1254;96565;-61
2023/02/20 00:11:41;;;;;;;7.60;4.30;;;;;;;2.96;75.19;101164.17;107329;1254;96412;-62
2023/02/20 00:14:10;;;;;;;7.80;4.40;;;;;;;2.90;75.17;101163.77;107540;1254;109964;-61
2023/02/20 00:16:38;;;;;;;8.80;3.70;;;;;;;2.84;75.37;101166.02;107512;1254;112754;-62
2023/02/20 00:19:06;;;;;;;5.10;3.60;;;;;;;2.81;75.68;101171.30;107517;1254;108538;-60
2023/02/20 00:21:36;;;;;;;4.40;3.20;;;;;;;2.77;76.16;101178.23;107497;1254;96462;-62
2023/02/20 00:24:04;;;;;;;9.10;3.70;;;;;;;2.73;76.26;101179.32;107535;1254;96358;-60
2023/02/20 00:26:33;;;;;;;6.80;3.70;;;;;;;2.70;76.46;101185.12;107536;1254;109833;-61
2023/02/20 00:29:01;;;;;;;4.70;3.60;;;;;;;2.70;76.76;101187.46;107348;1257;109990;-61
2023/02/20 00:31:29;;;;;;;7.10;3.20;;;;;;;2.67;76.93;101196.58;107511;1253;107861;-61
2023/02/20 00:33:58;;;;;;;7.10;3.70;;;;;;;2.69;76.87;101201.67;107468;1257;97230;-61
2023/02/20 00:36:26;;;;;;;4.80;3.60;;;;;;;2.69;76.99;101202.35;107422;1258;96535;-61
2023/02/20 00:38:54;;;;;;;5.20;3.70;;;;;;;2.70;76.83;101209.93;107373;1254;110403;-60
2023/02/20 00:41:24;;;;;;;8.80;3.50;;;;;;;2.72;76.93;101209.48;107464;1254;110009;-60
2023/02/20 00:43:53;;;;;;;8.30;4.00;;;;;;;2.72;76.78;101210.70;107475;1254;108135;-61
2023/02/20 00:46:21;;;;;;;5.80;3.70;;;;;;;2.73;76.66;101210.14;107542;1259;97593;-63
2023/02/20 00:48:50;;;;;;;7.90;4.20;;;;;;;2.75;76.64;101217.27;107534;1254;96482;-64
2023/02/20 00:51:37;;;;;;;7.80;3.60;;;;;;;2.76;76.52;101216.54;107552;1254;109959;-60
2023/02/20 00:54:06;;;;;;;10.50;4.20;;;;;;;2.76;76.43;101212.98;107545;1254;109875;-62
2023/02/20 00:56:34;;;;;;;7.70;3.80;;;;;;;2.79;76.40;101211.98;107418;1254;108708;-61
2023/02/20 00:59:03;;;;;;;11.60;4.40;;;;;;;2.79;76.40;101212.30;107540;1254;96431;-61
2023/02/20 01:01:32;;;;;;;10.00;4.10;;;;;;;2.79;76.34;101220.63;107424;1255;96504;-61
2023/02/20 01:04:00;;;;;;;6.60;4.00;;;;;;;2.82;76.27;101217.83;107520;1254;111005;-62
2023/02/20 01:06:29;;;;;;;9.30;4.10;;;;;;;2.87;76.31;101224.15;107442;1257;109837;-61
2023/02/20 01:08:57;;;;;;;8.70;4.30;;;;;;;2.91;76.29;101226.09;107315;1254;108607;-60
2023/02/20 01:11:26;;;;;;;6.60;4.40;;;;;;;2.92;75.86;101228.32;107491;1254;96564;-63
2023/02/20 01:13:54;;;;;;;7.30;4.30;;;;;;;2.90;75.60;101230.04;107518;1254;97199;-61
2023/02/20 01:16:23;;;;;;;7.00;4.20;;;;;;;2.88;75.67;101234.34;107538;1254;109884;-61
2023/02/20 01:18:51;;;;;;;6.20;4.00;;;;;;;2.89;75.55;101233.63;107505;1254;108992;-60
2023/02/20 01:21:20;;;;;;;9.90;4.40;;;;;;;2.88;75.42;101237.55;107544;1258;108362;-61
2023/02/20 01:23:49;;;;;;;8.70;5.50;;;;;;;2.90;75.45;101238.19;107446;1254;96520;-60
2023/02/20 01:26:17;;;;;;;8.70;4.40;;;;;;;2.89;75.28;101240.36;107539;1254;96478;-60
2023/02/20 01:28:48;;;;;;;15.40;4.90;;;;;;;2.88;75.32;101241.46;107452;1254;111525;-65
2023/02/20 01:31:17;;;;;;;12.00;5.20;;;;;;;2.87;75.04;101245.40;107578;1254;108713;-61
2023/02/20 01:33:45;;;;;;;10.90;4.60;;;;;;;2.87;75.00;101245.60;107548;1254;108633;-62
2023/02/20 01:36:14;;;;;;;8.70;4.10;;;;;;;2.88;75.13;101244.10;107355;1254;96504;-61
2023/02/20 01:38:42;;;;;;;9.50;4.90;;;;;;;2.90;74.95;101242.60;107405;1254;97094;-61
2023/02/20 01:41:11;;;;;;;10.40;4.60;;;;;;;2.93;74.84;101237.88;107540;1254;110476;-60
2023/02/20 01:43:40;;;;;;;12.60;4.70;;;;;;;2.96;74.80;101238.44;107413;1254;108686;-61
2023/02/20 01:46:27;;;;;;;11.20;4.60;;;;;;;2.96;74.66;101243.58;107497;1254;107706;-60
2023/02/20 01:49:04;;;;;;;12.60;4.30;;;;;;;2.96;74.63;101243.17;107511;1254;96491;-60
2023/02/20 01:51:40;;;;;;;8.80;4.50;;;;;;;3.00;74.42;101244.80;107550;1258;96382;-60
2023/02/20 01:54:13;;;;;;;9.20;5.10;;;;;;;3.03;74.66;101248.88;107381;1254;110945;-63
2023/02/20 01:56:44;;;;;;;13.90;5.00;;;;;;;3.03;74.04;101244.45;107470;1254;109712;-60
2023/02/20 01:59:15;;;;;;;10.60;5.60;;;;;;;2.97;73.70;101238.35;107422;1254;107285;-60
2023/02/20 02:01:45;;;;;;;10.90;5.00;;;;;;;2.92;73.35;101240.58;107397;1254;96459;-61
2023/02/20 02:04:14;;;;;;;13.10;5.50;;;;;;;2.90;73.65;101243.86;107442;1253;96535;-62
2023/02/20 02:06:47;;;;;;;9.80;5.00;;;;;;;2.86;73.38;101244.42;107458;1254;111025;-60
2023/02/20 02:09:32;;;;;;;12.50;4.50;;;;;;;2.85;73.44;101243.91;107466;1254;107919;-62
2023/02/20 02:12:01;;;;;;;10.00;5.00;;;;;;;2.85;73.45;101246.02;107520;1254;108651;-60
2023/02/20 02:14:31;;;;;;;12.90;4.90;;;;;;;2.88;73.50;101243.92;107561;1254;96504;-60
2023/02/20 02:17:05;;;;;;;12.60;4.60;;;;;;;2.92;73.47;101244.98;107497;1253;96478;-61
2023/02/20 02:20:19;;;;;;;11.90;4.70;;;;;;;2.92;72.90;101244.46;107499;1254;109382;-61
2023/02/20 02:23:11;;;;;;;11.10;5.20;;;;;;;2.89;72.29;101252.42;107269;1254;110042;-61
2023/02/20 02:26:18;;;;;;;7.50;3.90;;;;;;;2.87;72.26;101255.86;107520;1253;108586;-61
2023/02/20 02:29:11;;;;;;;15.00;4.70;;;;;;;2.84;72.01;101260.61;107429;1254;96504;-62
2023/02/20 02:31:58;;;;;;;17.10;4.90;;;;;;;2.80;72.06;101261.35;107543;1254;96490;-62
2023/02/20 02:35:00;;;;;;;13.70;4.70;;;;;;;2.80;71.85;101268.77;107520;1258;110898;-61
2023/02/20 02:38:06;;;;;;;10.50;4.30;;;;;;;2.79;71.66;101267.92;107455;1254;109357;-62
2023/02/20 02:40:54;;;;;;;11.70;5.80;;;;;;;2.78;71.37;101270.64;107501;1259;106751;-59
2023/02/20 02:43:52;;;;;;;10.90;5.40;;;;;;;2.74;71.33;101280.38;107483;1254;96546;-61
2023/02/20 02:46:36;;;;;;;12.40;4.70;;;;;;;2.71;71.34;101294.19;107540;1254;96344;-61
2023/02/20 02:49:23;;;;;;;9.10;4.60;;;;;;;2.65;71.35;101299.94;107375;1255;110774;-61
2023/02/20 02:51:55;;;;;;;11.30;5.40;;;;;;;2.60;71.24;101306.39;107529;1254;108912;-61
2023/02/20 02:54:27;;;;;;;9.50;4.70;;;;;;;2.56;71.37;101308.52;107445;1254;108692;-61
2023/02/20 02:57:18;;;;;;;12.30;4.80;;;;;;;2.54;71.41;101310.54;107505;1254;96502;-62
2023/02/20 02:59:50;;;;;;;10.70;5.40;;;;;;;2.54;71.08;101316.06;107495;1255;96944;-61
2023/02/20 03:02:20;;;;;;;10.00;4.60;;;;;;;2.54;71.16;101322.96;107493;1254;109863;-61
2023/02/20 03:04:50;;;;;;;11.80;4.90;;;;;;;2.53;71.14;101329.34;107587;1254;110194;-60
2023/02/20 03:07:20;;;;;;;14.50;5.10;;;;;;;2.59;71.47;101328.39;107430;1254;107623;-63
2023/02/20 03:09:56;;;;;;;15.70;6.40;;;;;;;2.60;71.20;101328.50;107459;1254;96522;-61
2023/02/20 03:12:26;;;;;;;10.20;4.90;;;;;;;2.64;71.35;101330.07;107563;1254;96516;-60
2023/02/20 03:18:09;;;;;;;10.70;5.20;;;;;;;2.70;71.29;101343.63;107502;1254;108714;-64
2023/02/20 03:20:47;;;;;;;14.20;5.20;;;;;;;2.71;70.76;101342.02;107571;1255;107649;-59
2023/02/20 03:23:40;;;;;;;8.50;4.70;;;;;;;2.70;70.66;101350.91;107475;1254;96481;-61
2023/02/20 03:26:17;;;;;;;11.60;4.90;;;;;;;2.69;70.65;101364.23;107453;1255;96488;-62
2023/02/20 03:28:53;;;;;;;11.80;5.30;;;;;;;2.67;70.47;101367.51;107480;1254;111569;-61
2023/02/20 03:43:26;;;;;;;11.10;5.50;;;;;;;2.62;69.69;101374.66;107560;1256;110180;-63
2023/02/20 03:46:06;;;;;;;9.60;5.00;;;;;;;2.59;69.61;101379.55;107477;1255;109883;-61
2023/02/20 03:48:47;;;;;;;13.30;5.50;;;;;;;2.54;69.61;101382.44;107438;1258;108252;-62
2023/02/20 03:51:17;;;;;;;14.00;5.10;;;;;;;2.49;69.91;101382.66;107462;1256;96479;-60
2023/02/20 03:53:53;;;;;;;14.40;5.50;;;;;;;2.47;70.05;101382.36;107555;1254;96469;-60
2023/02/20 03:56:36;;;;;;;16.50;4.90;;;;;;;2.47;70.17;101376.71;107461;1254;110844;-61
2023/02/20 03:59:22;;;;;;;10.60;5.40;;;;;;;2.48;70.38;101372.06;107409;1254;110042;-63
2023/02/20 04:01:56;;;;;;;19.10;6.00;;;;;;;2.47;70.15;101365.56;107468;1259;108101;-59
2023/02/20 04:04:32;;;;;;;17.40;6.30;;;;;;;2.48;70.32;101371.73;107454;1254;96555;-62
2023/02/20 04:07:06;;;;;;;22.20;7.70;;;;;;;2.43;69.96;101375.85;107429;1256;96372;-61
2023/02/20 04:09:37;;;;;;;19.00;7.40;;;;;;;2.35;69.94;101376.73;107493;1259;111197;-61
2023/02/20 04:12:17;;;;;;;17.50;7.20;;;;;;;2.26;69.73;101380.33;107456;1257;109123;-61
2023/02/20 04:14:48;;;;;;;20.50;7.50;;;;;;;2.14;69.89;101378.89;107415;1259;108039;-62
2023/02/20 04:17:23;;;;;;;17.60;7.20;;;;;;;2.04;70.11;101377.38;107564;1254;97196;-61
2023/02/20 04:19:53;;;;;;;17.50;7.70;;;;;;;1.95;70.19;101374.73;107554;1254;97048;-61
2023/02/20 04:22:26;;;;;;;19.40;6.60;;;;;;;1.87;70.45;101379.68;107555;1254;110523;-60
2023/02/20 04:25:00;;;;;;;13.70;6.10;;;;;;;1.77;70.43;101380.62;107442;1259;109270;-63
2023/02/20 04:27:31;;;;;;;16.20;5.60;;;;;;;1.68;70.68;101381.88;107454;1259;107717;-61
2023/02/20 04:29:59;;;;;;;18.90;8.10;;;;;;;1.59;70.76;101384.02;107363;1260;96572;-62
2023/02/20 04:32:28;;;;;;;17.70;8.10;;;;;;;1.47;70.91;101384.50;107466;1255;95799;-61
2023/02/20 04:34:56;;;;;;;20.50;7.80;;;;;;;1.34;71.54;101385.21;107424;1259;110027;-62
2023/02/20 04:37:25;;;;;;;18.30;8.10;;;;;;;1.21;72.01;101389.06;107487;1260;109226;-60
2023/02/20 04:39:54;;;;;;;23.70;8.40;;;;;;;1.12;72.40;101385.35;107472;1259;106873;-61
2023/02/20 04:42:23;;;;;;;22.10;8.70;;;;;;;1.07;72.41;101391.54;107478;1254;96473;-62
2023/02/20 04:44:52;;;;;;;19.40;6.80;;;;;;;1.05;72.66;101397.64;107437;1254;96479;-61
2023/02/20 04:47:21;;;;;;;17.30;7.40;;;;;;;1.04;72.82;101396.29;107506;1259;111041;-61
2023/02/20 04:49:50;;;;;;;20.40;7.60;;;;;;;1.02;72.90;101401.48;107492;1260;109751;-60
2023/02/20 04:52:23;;;;;;;15.60;6.40;;;;;;;1.00;73.01;101407.74;107481;1255;107929;-61
2023/02/20 04:54:52;;;;;;;25.20;7.80;;;;;;;0.96;73.16;101406.46;107460;1255;96562;-61
2023/02/20 04:57:22;;;;;;;19.60;7.00;;;;;;;0.95;73.25;101411.98;107541;1260;96475;-62
2023/02/20 04:59:50;;;;;;;16.10;7.10;;;;;;;0.93;73.45;101414.00;107442;1259;110940;-61
2023/02/20 05:02:19;;;;;;;20.80;7.20;;;;;;;0.92;73.60;101411.92;107480;1257;109967;-62
2023/02/20 05:04:47;;;;;;;22.80;8.50;;;;;;;0.91;73.48;101417.58;107450;1257;107359;-61
2023/02/20 05:07:16;;;;;;;21.20;7.60;;;;;;;0.89;73.68;101412.36;107505;1259;96567;-61
2023/02/20 05:09:45;;;;;;;19.80;7.70;;;;;;;0.89;73.59;101413.64;107526;1254;96564;-60
2023/02/20 05:12:13;;;;;;;28.50;10.00;;;;;;;0.89;73.67;101416.45;107512;1260;110501;-59
2023/02/20 05:14:41;;;;;;;18.60;7.70;;;;;;;0.91;73.49;101416.37;107522;1254;110101;-61
2023/02/20 05:17:10;;;;;;;18.00;6.90;;;;;;;0.93;73.45;101416.97;107529;1254;108558;-61
2023/02/20 05:19:38;;;;;;;24.10;7.30;;;;;;;0.96;73.07;101427.48;107513;1260;96920;-62
2023/02/20 05:22:20;;;;;;;11.30;5.80;;;;;;;1.00;72.87;101428.21;107488;1254;97054;-60
2023/02/20 05:24:50;;;;;;;14.10;5.50;;;;;;;1.03;72.43;101439.39;107480;1255;110639;-61
2023/02/20 05:27:21;;;;;;;13.80;5.80;;;;;;;1.06;72.28;101441.59;107499;1254;109778;-61
2023/02/20 05:29:53;;;;;;;18.60;6.40;;;;;;;1.08;72.00;101442.55;107506;1254;107095;-61
2023/02/20 05:32:23;;;;;;;14.30;6.80;;;;;;;1.09;71.68;101448.55;107445;1259;96500;-60
2023/02/20 05:34:52;;;;;;;20.30;6.10;;;;;;;1.10;71.45;101447.98;107508;1254;96366;-59
2023/02/20 05:37:23;;;;;;;16.20;5.80;;;;;;;1.11;71.48;101449.52;107541;1254;109932;-61
2023/02/20 05:39:51;;;;;;;13.60;5.60;;;;;;;1.14;71.20;101452.58;107517;1257;109570;-61
2023/02/20 05:42:21;;;;;;;13.20;6.10;;;;;;;1.19;70.72;101461.06;107437;1254;107653;-61
2023/02/20 05:44:50;;;;;;;12.70;5.80;;;;;;;1.24;70.70;101467.05;107501;1254;96459;-60
2023/02/20 05:47:18;;;;;;;17.10;5.80;;;;;;;1.29;70.58;101469.73;107437;1254;96461;-61
2023/02/20 05:49:47;;;;;;;16.70;5.30;;;;;;;1.33;70.18;101470.44;107488;1257;109554;-61
2023/02/20 05:52:16;;;;;;;11.10;5.50;;;;;;;1.39;69.78;101468.61;107498;1257;109709;-60
2023/02/20 05:54:46;;;;;;;13.60;5.10;;;;;;;1.46;69.54;101471.54;107506;1257;107937;-60
2023/02/20 05:57:15;;;;;;;10.70;5.10;;;;;;;1.50;69.31;101467.48;107477;1254;96568;-61
2023/02/20 05:59:43;;;;;;;14.20;6.40;;;;;;;1.52;69.27;101466.66;107482;1257;96475;-62
2023/02/20 06:02:12;;;;;;;20.10;7.80;;;;;;;1.54;69.25;101473.14;107516;1254;110408;-60
2023/02/20 06:04:40;;;;;;;13.20;6.60;;;;;;;1.55;69.00;101476.65;107516;1254;110048;-60
2023/02/20 06:07:09;;;;;;;12.30;4.80;;;;;;;1.56;68.78;101481.90;107420;1254;107571;-62
2023/02/20 06:09:42;;;;;;;14.20;5.60;;;;;;;1.56;68.74;101479.95;107485;1254;96484;-62
2023/02/20 06:12:11;;;;;;;9.10;4.70;;;;;;;1.59;68.91;101477.92;107477;1254;96520;-61
2023/02/20 06:14:39;;;;;;;10.50;4.10;;;;;;;1.62;68.74;101478.31;107496;1254;110655;-62
2023/02/20 06:17:08;;;;;;;12.20;5.00;;;;;;;1.67;68.56;101482.01;107501;1254;109752;-62
2023/02/20 06:19:37;;;;;;;19.40;5.80;;;;;;;1.87;68.28;101489.02;107465;1254;107684;-62
2023/02/20 06:22:05;;;;;;;20.50;5.00;;;;;;;2.21;67.69;101481.58;107516;1254;96354;-63
2023/02/20 06:24:33;;;;;;;10.60;5.80;;;;;;;2.28;66.70;101486.79;107454;1254;96485;-60
2023/02/20 06:27:02;;;;;;;10.80;4.50;;;;;;;2.23;66.69;101491.58;107452;1253;110513;-59
2023/02/20 06:29:31;;;;;;;15.60;5.70;;;;;;;2.18;66.55;101495.67;107521;1254;109155;-60
2023/02/20 06:31:59;;;;;;;18.30;5.20;;;;;;;2.17;66.73;101499.24;107436;1254;108332;-62
2023/02/20 06:34:31;;;;;;;12.40;5.60;;;;;;;2.18;66.72;101497.44;107500;1254;96591;-60
2023/02/20 06:37:02;;;;;;;12.50;4.50;;;;;;;2.18;66.66;101497.08;107482;1254;97049;-60
2023/02/20 06:39:31;;;;;;;11.40;5.10;;;;;;;2.20;66.88;101494.55;107614;1254;108688;-60
2023/02/20 06:42:00;;;;;;;9.90;4.10;;;;;;;2.19;65.97;101494.06;107618;1254;109823;-60
2023/02/20 06:44:28;;;;;;;11.70;4.00;;;;;;;2.18;65.82;101501.69;107423;1259;108561;-61
2023/02/20 06:46:57;;;;;;;14.10;4.90;;;;;;;2.20;65.82;101498.28;107551;1257;96485;-60
2023/02/20 06:49:25;;;;;;;16.10;5.80;;;;;;;2.21;65.73;101494.86;107592;1253;96473;-61
2023/02/20 06:51:54;;;;;;;11.90;5.40;;;;;;;2.25;65.95;101493.26;107631;1254;110040;-62
2023/02/20 06:54:22;;;;;;;12.60;4.50;;;;;;;2.30;65.52;101485.98;107601;1254;109333;-60
2023/02/20 06:56:51;;;;;;;17.90;7.60;;;;;;;2.36;65.26;101482.19;107555;1256;107493;-61
2023/02/20 06:59:20;;;;;;;18.60;5.70;;;;;;;2.42;65.06;101487.60;107535;1254;96477;-62
2023/02/20 07:01:48;;;;;;;13.40;5.90;;;;;;;2.47;64.39;101482.23;107573;1254;96373;-61
2023/02/20 07:04:25;;;;;;;14.00;5.10;;;;;;;2.52;63.68;101487.73;107566;1254;109863;-62
2023/02/20 07:06:55;;;;;;;12.30;4.30;;;;;;;2.56;63.03;101494.09;107587;1254;110054;-62
2023/02/20 07:09:24;;;;;;;14.70;4.60;;;;;;;2.61;62.22;101493.86;107559;1254;108163;-61
2023/02/20 07:11:53;;;;;;;13.50;5.10;;;;;;;2.67;61.44;101499.27;107564;1254;96478;-62
2023/02/20 07:14:22;;;;;;;8.00;4.30;;;;;;;2.73;61.51;101499.21;107588;1254;96379;-61
2023/02/20 07:16:50;;;;;;;16.40;4.00;;;;;;;2.77;60.07;101508.77;107587;1254;110338;-60
2023/02/20 07:19:20;;;;;;;11.30;3.60;;;;;;;2.81;58.84;101500.97;107481;1254;109457;-62
2023/02/20 07:21:49;;;;;;;9.90;2.70;;;;;;;2.86;58.99;101505.56;107581;1254;108266;-62
2023/02/20 07:24:17;;;;;;;12.50;4.00;;;;;;;2.90;59.02;101511.58;107540;1254;96563;-62
2023/02/20 07:26:46;;;;;;;12.60;2.90;;;;;;;2.94;58.55;101510.87;107495;1254;97010;-61
2023/02/20 07:29:15;;;;;;;10.00;2.80;;;;;;;2.97;58.22;101510.36;107380;1254;111653;-63
2023/02/20 07:31:44;;;;;;;11.90;2.70;;;;;;;3.03;58.24;101513.81;107656;1254;109735;-63
2023/02/20 07:34:12;;;;;;;8.50;3.30;;;;;;;3.11;58.96;101511.14;107647;1254;107325;-61
2023/02/20 07:36:41;;;;;;;18.60;3.50;;;;;;;3.17;58.09;101513.02;107688;1252;96356;-60
2023/02/20 07:39:12;;;;;;;7.70;2.70;;;;;;;3.21;56.38;101517.28;107628;1254;96351;-62
2023/02/20 07:41:41;;;;;;;4.50;2.20;;;;;;;3.26;56.42;101503.01;107611;1256;110491;-62
2023/02/20 07:44:30;;;;;;;9.60;4.00;;;;;;;3.33;56.47;101505.57;107204;1254;109639;-62
2023/02/20 07:46:59;;;;;;;13.00;4.40;;;;;;;3.41;56.74;101515.09;107570;1253;106765;-61
2023/02/20 07:49:28;;;;;;;13.00;3.50;;;;;;;3.49;55.75;101524.85;107538;1254;96535;-63
2023/02/20 07:51:56;;;;;;;7.70;2.60;;;;;;;3.57;56.30;101524.47;107376;1254;97247;-61
2023/02/20 07:54:26;;;;;;;9.40;3.20;;;;;;;3.66;55.52;101530.27;107505;1254;110513;-61
2023/02/20 07:56:55;;;;;;;6.50;2.60;;;;;;;3.68;53.15;101527.66;107547;1254;109310;-61
2023/02/20 07:59:23;;;;;;;8.90;2.80;;;;;;;3.68;52.10;101518.98;107468;1254;108026;-61
2023/02/20 08:01:51;;;;;;;14.30;3.30;;;;;;;3.71;52.26;101522.90;107561;1254;97051;-63
2023/02/20 08:04:20;;;;;;;7.00;3.00;;;;;;;3.81;53.63;101521.42;107509;1253;96469;-62
2023/02/20 08:06:48;;;;;;;11.90;2.40;;;;;;;3.94;52.56;101528.77;107590;1254;110105;-62
2023/02/20 08:09:16;;;;;;;6.80;2.30;;;;;;;4.00;52.67;101519.59;107607;1254;109690;-62
2023/02/20 08:11:45;;;;;;;14.70;2.40;;;;;;;4.16;53.12;101523.59;107435;1254;107083;-62
2023/02/20 08:14:14;;;;;;;8.90;2.10;;;;;;;4.22;49.85;101526.66;107556;1254;96414;-61
2023/02/20 08:16:43;;;;;;;6.50;2.10;;;;;;;4.25;50.03;101522.98;107616;1254;96359;-61
2023/02/20 08:19:11;;;;;;;13.30;2.10;;;;;;;4.37;51.45;101517.21;107514;1254;109909;-62
2023/02/20 08:21:40;;;;;;;7.00;2.40;;;;;;;4.52;51.11;101511.48;107625;1256;108794;-62
2023/02/20 08:24:08;;;;;;;9.40;3.10;;;;;;;4.63;51.64;101516.27;107596;1254;108394;-62
2023/02/20 08:26:44;;;;;;;6.90;2.20;;;;;;;4.74;49.97;101521.56;107594;1254;96516;-62
2023/02/20 08:29:14;;;;;;;6.10;2.00;;;;;;;4.84;49.27;101528.52;107614;1254;96424;-61
2023/02/20 08:31:43;;;;;;;6.30;2.00;;;;;;;4.96;48.85;101526.10;107509;1253;110806;-63
2023/02/20 08:34:11;;;;;;;6.60;2.30;;;;;;;5.10;48.40;101530.90;107476;1253;109280;-61
2023/02/20 08:36:40;;;;;;;6.40;2.40;;;;;;;5.24;48.34;101525.70;107577;1254;107793;-62
2023/02/20 08:39:09;;;;;;;9.70;2.20;;;;;;;5.37;47.35;101522.11;107565;1254;96490;-61
2023/02/20 08:41:45;;;;;;;7.40;2.00;;;;;;;5.52;47.42;101521.51;107642;1254;96377;-61
2023/02/20 08:44:14;;;;;;;6.60;2.00;;;;;;;5.67;47.62;101517.48;107602;1254;109944;-61
2023/02/20 08:46:50;;;;;;;8.10;1.90;;;;;;;5.73;47.46;101515.58;107609;1254;110385;-62
2023/02/20 08:49:19;;;;;;;8.50;2.30;;;;;;;5.67;45.30;101531.20;107593;1254;108497;-62
2023/02/20 08:51:55;;;;;;;9.50;1.90;;;;;;;5.57;44.36;101525.67;107441;1254;96516;-62
2023/02/20 08:54:24;;;;;;;4.40;2.00;;;;;;;5.57;44.50;101518.23;107630;1254;96475;-62
2023/02/20 08:56:53;;;;;;;5.50;2.10;;;;;;;5.89;44.40;101514.98;107527;1253;109798;-62
2023/02/20 08:59:21;;;;;;;7.40;2.30;;;;;;;6.02;43.00;101516.64;107638;1254;109500;-64
2023/02/20 09:01:50;;;;;;;8.60;2.20;;;;;;;5.95;43.48;101519.80;107590;1254;107220;-62
2023/02/20 09:04:20;;;;;;;7.20;2.20;;;;;;;5.87;43.44;101516.86;107609;1254;96504;-63
2023/02/20 09:06:48;;;;;;;3.70;1.60;;;;;;;5.84;43.44;101513.48;107614;1253;96348;-62
2023/02/20 09:09:17;;;;;;;5.10;1.90;;;;;;;5.78;43.55;101511.00;107589;1256;110032;-62
2023/02/20 09:11:46;;;;;;;8.60;2.10;;;;;;;5.69;43.57;101505.65;107629;1254;110368;-61
2023/02/20 09:14:14;;;;;;;13.40;2.30;;;;;;;5.68;43.78;101500.33;107569;1253;108737;-62
2023/02/20 09:16:43;;;;;;;6.80;2.00;;;;;;;5.77;44.62;101497.90;107590;1254;96494;-62
2023/02/20 09:19:14;;;;;;;5.20;1.90;;;;;;;5.88;43.99;101495.14;107606;1254;96443;-63
2023/02/20 09:21:45;;;;;;;6.60;2.20;;;;;;;5.91;44.25;101491.36;107614;1253;110545;-62
2023/02/20 09:24:14;;;;;;;12.20;2.20;;;;;;;5.99;44.81;101491.30;107483;1254;109956;-62
2023/02/20 09:26:42;;;;;;;11.80;2.10;;;;;;;6.43;44.28;101483.75;107612;1254;108265;-61
2023/02/20 09:29:11;;;;;;;12.80;2.60;;;;;;;6.74;44.11;101474.79;107599;1254;96475;-62
2023/02/20 09:31:40;;;;;;;11.90;2.40;;;;;;;7.18;42.08;101474.92;107607;1254;96990;-62
2023/02/20 09:34:08;;;;;;;12.00;2.50;;;;;;;7.67;40.57;101461.26;107597;1254;111013;-63
2023/02/20 09:36:37;;;;;;;8.30;2.50;;;;;;;7.98;39.93;101456.04;107612;1254;109215;-61
2023/02/20 09:39:05;;;;;;;12.30;2.40;;;;;;;8.22;41.51;101458.36;107553;1253;108131;-62
2023/02/20 09:41:39;;;;;;;6.40;1.90;;;;;;;8.63;38.87;101458.29;107584;1253;96464;-62
2023/02/20 09:44:14;;;;;;;4.00;2.10;;;;;;;8.60;36.82;101462.48;107614;1254;96824;-62
2023/02/20 09:46:48;;;;;;;4.70;1.50;;;;;;;8.66;37.84;101461.00;107575;1253;110038;-62
2023/02/20 09:49:24;;;;;;;6.70;2.50;;;;;;;8.76;38.12;101461.82;107594;1254;110005;-63
2023/02/20 09:51:56;;;;;;;4.80;1.70;;;;;;;8.85;37.14;101458.42;106739;1254;1000716;-63
2023/02/20 09:54:35;;;;;;;7.10;2.30;;;;;;;8.62;36.86;101461.03;107565;1257;96376;-62
2023/02/20 09:57:09;;;;;;;9.30;1.80;;;;;;;8.24;36.80;101460.00;107560;1253;96984;-62
2023/02/20 09:59:50;;;;;;;9.40;1.50;;;;;;;7.82;37.28;101467.63;107658;1253;111029;-62
2023/02/20 10:03:10;;;;;;;4.20;1.40;;;;;;;7.45;37.60;101472.52;107631;1254;109018;-62
2023/02/20 10:05:42;;;;;;;6.00;1.90;;;;;;;7.22;38.22;101462.55;107302;1253;108438;-60
2023/02/20 10:08:18;;;;;;;7.10;3.40;;;;;;;7.52;38.41;101456.35;107617;1254;96478;-63
2023/02/20 10:10:56;;;;;;;7.50;1.80;;;;;;;8.02;39.22;101447.88;107624;1252;97000;-61
2023/02/20 10:13:43;;;;;;;5.30;1.10;;;;;;;8.95;37.22;101435.64;107608;1253;110914;-61
2023/02/20 10:16:20;;;;;;;5.50;1.30;;;;;;;9.94;36.92;101433.49;107576;1254;108008;-62
2023/02/20 10:19:16;;;;;;;19.20;2.10;;;;;;;11.21;34.60;101436.46;107612;1254;107987;-61
2023/02/20 10:22:00;;;;;;;1.80;1.00;;;;;;;11.80;33.47;101423.39;107616;1254;96354;-64
2023/02/20 10:24:59;;;;;;;5.40;1.00;;;;;;;12.54;32.14;101417.32;107613;1254;96431;-62
2023/02/20 10:27:41;;;;;;;2.40;1.00;;;;;;;13.43;30.05;101419.63;107576;1256;109995;-60
2023/02/20 10:30:14;;;;;;;2.40;0.90;;;;;;;13.94;29.01;101407.65;107580;1254;109217;-62
2023/02/20 10:33:21;;;;;;;3.00;1.20;;;;;;;14.55;28.89;101397.18;107598;1254;107270;-63
2023/02/20 10:35:59;;;;;;;5.40;1.30;;;;;;;14.98;26.93;101400.85;107576;1254;96651;-61
2023/02/20 10:38:37;;;;;;;2.20;0.90;;;;;;;15.10;27.56;101385.96;107623;1254;96354;-62
2023/02/20 10:41:27;;;;;;;4.30;1.60;;;;;;;15.18;26.98;101381.76;107608;1254;110096;-62
2023/02/20 10:44:08;;;;;;;1.90;0.90;;;;;;;14.79;26.12;101385.98;107591;1254;110033;-63
2023/02/20 10:46:51;;;;;;;2.50;1.60;;;;;;;14.85;26.70;101378.52;107561;1254;108085;-61
2023/02/20 10:49:54;;;;;;;6.00;1.30;;;;;;;15.04;26.42;101372.36;107484;1253;96463;-62
2023/02/20 10:52:32;;;;;;;2.10;1.10;;;;;;;15.67;27.57;101362.88;107621;1254;96459;-61
2023/02/20 10:55:02;;;;;;;3.20;1.40;;;;;;;16.25;26.32;101359.92;107621;1254;110690;-62
2023/02/20 10:57:46;;;;;;;2.80;0.90;;;;;;;16.52;24.60;101365.62;107606;1254;109680;-61
2023/02/20 11:00:39;;;;;;;5.70;1.10;;;;;;;16.29;24.02;101351.19;107607;1253;108296;-62
2023/02/20 11:03:17;;;;;;;4.10;1.10;;;;;;;16.44;25.17;101331.89;107500;1254;96460;-62
2023/02/20 11:05:50;;;;;;;2.20;0.90;;;;;;;17.27;25.20;101323.84;107459;1254;96468;-63
2023/02/20 11:08:20;;;;;;;2.80;0.80;;;;;;;17.32;23.21;101328.05;107526;1254;109441;-63
2023/02/20 11:10:54;;;;;;;2.00;0.90;;;;;;;17.17;23.24;101319.08;107470;1254;107825;-63
2023/02/20 11:13:24;;;;;;;1.90;1.30;;;;;;;17.25;23.26;101315.86;107444;1257;108575;-62
2023/02/20 11:15:55;;;;;;;4.30;1.10;;;;;;;17.38;23.42;101307.98;107461;1254;96476;-63
2023/02/20 11:18:34;;;;;;;4.40;0.90;;;;;;;17.59;23.05;101296.41;107485;1257;97702;-62
2023/02/20 11:21:03;;;;;;;5.60;1.10;;;;;;;17.98;22.83;101283.05;107426;1254;111993;-62
2023/02/20 11:23:41;;;;;;;1.60;0.70;;;;;;;18.14;22.77;101281.52;107424;1254;110410;-63
2023/02/20 11:26:20;;;;;;;3.60;0.70;;;;;;;18.73;23.22;101269.48;107598;1254;107693;-64
2023/02/20 11:29:03;;;;;;;2.50;0.70;;;;;;;19.25;23.22;101266.96;107636;1254;96472;-62
2023/02/20 11:31:33;;;;;;;4.00;0.90;;;;;;;19.25;21.72;101260.63;107562;1254;96481;-64
2023/02/20 11:34:03;;;;;;;2.10;0.90;;;;;;;18.99;21.22;101263.27;107630;1252;109856;-65
2023/02/20 11:36:44;;;;;;;1.60;0.90;;;;;;;18.96;22.62;101247.57;107592;1254;109167;-63
2023/02/20 11:39:28;;;;;;;2.50;1.20;;;;;;;19.24;21.66;101252.16;107448;1253;108654;-62
2023/02/20 11:42:19;;;;;;;1.70;0.60;;;;;;;18.73;21.48;101238.63;107434;1254;96466;-62
2023/02/20 11:45:12;;;;;;;6.60;0.80;;;;;;;18.81;21.75;101237.30;107643;1253;96576;-62
2023/02/20 11:47:42;;;;;;;6.10;0.90;;;;;;;18.32;21.43;101232.25;107633;1253;109562;-63
2023/02/20 11:50:19;;;;;;;1.30;0.70;;;;;;;18.07;21.53;101228.86;107493;1258;110268;-65
2023/02/20 11:52:57;;;;;;;0.50;0.50;;;;;;;17.65;21.30;101223.56;107658;1253;107103;-64
2023/02/20 11:55:28;;;;;;;1.30;0.90;;;;;;;16.95;21.34;101230.16;107638;1254;96471;-62
2023/02/20 11:57:57;;;;;;;1.90;0.60;;;;;;;15.99;22.10;101238.27;107588;1253;96478;-62